Hlavní strana
METAR-TAF:

METAR-TAF

Letiště :

Niamey, Niger

zeměpisná šířka: 13-29N, zeměpisná délka: 002-10E, výška: 223 m

Aktuální stav počasí

Zpráva byla vytvořena před 1 hodinou a 3 minutami, v 03:00 UTC
Západojihozápadní vítr 6 kt
Teplota 32°C
Vlhkost vzduchu 24%
Tlak 1008 hPa
Viditelnost 10 km a více
Žádná oblačnost pod 1500 m, nevyskytují se cumulonimby.

METAR: DRRN 050300Z 25006KT CAVOK 32/09 Q1008 NOSIG

Čas: 05:03 (04:03 UTC)

Předpověď počasí

Zpráva byla vytvořena před 5 hodinami a 3 minutami, v 23:00 UTC
Předpověď platná od 05 v 00 UTC do 06 v 06 UTC
Západní vítr 5 kt
Viditelnost: 8000 m

TAF: DRRN 042300Z 0500/0606 26005KT 8000 NSC

Stav a předpovědi počasí z více než 4 000 letišť (zprávy METAR a TAF).

Červené a žluté tečky na mapě představují dostupné meteorologické stanice.

Když kurzor umístíte na tečku, zobrazí se název stanice.

Pak kliknutím zobrazíte stav a předpověď počasí.

Chcete-li změnit mapu, kliknutím na zelené tlačítko se znaménkem +mapu přiblížíte, kliknutím na zelené tlačítko se znaménkem – mapu oddálíte a kliknutím na zelené šipky přejdete na sousední mapy.


METAR-TAF: